createdAt,value
2023-01-29T00:02:53.330Z,-1.45
2023-01-29T00:08:00.475Z,-1.36
2023-01-29T00:13:07.696Z,-1.29
2023-01-29T00:18:15.068Z,-1.26
2023-01-29T00:23:23.076Z,-1.26
2023-01-29T00:28:30.296Z,-1.27
2023-01-29T00:33:37.851Z,-1.28
2023-01-29T00:38:45.107Z,-1.30
2023-01-29T00:44:10.228Z,-1.29
2023-01-29T00:49:17.416Z,-1.23
2023-01-29T00:54:24.643Z,-1.16
2023-01-29T00:59:32.086Z,-1.10
2023-01-29T01:04:39.211Z,-1.06
2023-01-29T01:10:04.087Z,-1.07
2023-01-29T01:15:13.285Z,-1.13
2023-01-29T01:20:21.305Z,-1.19
2023-01-29T01:25:29.873Z,-1.23
2023-01-29T01:30:37.062Z,-1.26
2023-01-29T01:35:44.147Z,-1.28
2023-01-29T01:40:51.290Z,-1.27
2023-01-29T01:45:58.509Z,-1.24
2023-01-29T01:51:07.865Z,-1.21
2023-01-29T01:56:19.198Z,-1.20
2023-01-29T02:01:29.160Z,-1.22
2023-01-29T02:06:58.276Z,-1.24
2023-01-29T02:12:07.467Z,-1.27
2023-01-29T02:17:17.427Z,-1.30
2023-01-29T02:22:48.346Z,-1.33
2023-01-29T02:28:22.057Z,-1.30
2023-01-29T02:33:41.449Z,-1.24
2023-01-29T02:38:56.590Z,-1.17
2023-01-29T02:44:13.143Z,-1.13
2023-01-29T02:49:27.394Z,-1.11
2023-01-29T02:54:41.654Z,-1.10
2023-01-29T02:59:56.156Z,-1.13
2023-01-29T03:05:10.454Z,-1.17
2023-01-29T03:10:22.934Z,-1.20
2023-01-29T03:15:38.962Z,-1.22
2023-01-29T03:21:04.593Z,-1.21
2023-01-29T03:26:30.525Z,-1.16
2023-01-29T03:31:57.367Z,-1.09
2023-01-29T03:37:09.406Z,-1.06
2023-01-29T03:42:25.872Z,-1.08
2023-01-29T03:47:45.075Z,-1.13
2023-01-29T03:52:58.067Z,-1.17
2023-01-29T03:58:15.540Z,-1.21
2023-01-29T04:03:25.813Z,-1.25
2023-01-29T04:08:39.406Z,-1.29
2023-01-29T04:13:47.347Z,-1.30
2023-01-29T04:18:58.010Z,-1.25
2023-01-29T04:24:16.319Z,-1.19
2023-01-29T04:29:42.013Z,-1.15
2023-01-29T04:35:09.004Z,-1.14
2023-01-29T04:40:27.974Z,-1.17
2023-01-29T04:45:50.124Z,-1.22
2023-01-29T04:51:05.033Z,-1.26
2023-01-29T04:56:18.629Z,-1.30
2023-01-29T05:01:30.184Z,-1.30
2023-01-29T05:06:39.294Z,-1.26
2023-01-29T05:11:49.063Z,-1.23
2023-01-29T05:16:59.791Z,-1.20
2023-01-29T05:22:11.120Z,-1.19
2023-01-29T05:27:40.366Z,-1.21
2023-01-29T05:32:47.586Z,-1.26
2023-01-29T05:37:54.681Z,-1.30
2023-01-29T05:43:02.014Z,-1.34
2023-01-29T05:48:09.477Z,-1.32
2023-01-29T05:53:16.684Z,-1.29
2023-01-29T05:58:24.784Z,-1.24
2023-01-29T06:03:31.938Z,-1.22
2023-01-29T06:08:39.129Z,-1.21
2023-01-29T06:13:48.008Z,-1.22
2023-01-29T06:18:55.149Z,-1.25
2023-01-29T06:24:02.435Z,-1.29
2023-01-29T06:29:09.708Z,-1.30
2023-01-29T06:34:16.968Z,-1.27
2023-01-29T06:39:25.310Z,-1.22
2023-01-29T06:44:32.598Z,-1.17
2023-01-29T06:49:39.852Z,-1.14
2023-01-29T06:54:47.523Z,-1.16
2023-01-29T06:59:54.726Z,-1.18
2023-01-29T07:05:06.082Z,-1.20
2023-01-29T07:10:14.322Z,-1.18
2023-01-29T07:15:21.912Z,-1.13
2023-01-29T07:20:31.783Z,-1.05
2023-01-29T07:25:39.223Z,-0.99
2023-01-29T07:30:46.447Z,-0.98
2023-01-29T07:35:56.505Z,-0.98
2023-01-29T07:41:03.942Z,-0.96
2023-01-29T07:46:14.890Z,-0.92
2023-01-29T07:51:22.116Z,-0.86
2023-01-29T07:56:29.346Z,-0.79
2023-01-29T08:01:36.640Z,-0.73
2023-01-29T08:06:45.531Z,-0.69
2023-01-29T08:11:55.106Z,-0.69
2023-01-29T08:17:02.975Z,-0.67
2023-01-29T08:22:12.621Z,-0.63
2023-01-29T08:27:20.129Z,-0.55
2023-01-29T08:32:27.742Z,-0.48
2023-01-29T08:37:35.254Z,-0.40
2023-01-29T08:42:42.722Z,-0.36
2023-01-29T08:47:51.261Z,-0.33
2023-01-29T08:53:02.570Z,-0.30
2023-01-29T08:58:11.087Z,-0.31
2023-01-29T09:03:18.483Z,-0.31
2023-01-29T09:08:25.410Z,-0.26
2023-01-29T09:13:33.235Z,-0.20
2023-01-29T09:18:40.768Z,-0.15
2023-01-29T09:23:48.046Z,-0.10
2023-01-29T09:28:55.305Z,-0.08
2023-01-29T09:34:02.479Z,-0.08
2023-01-29T09:39:09.723Z,-0.10
2023-01-29T09:44:26.141Z,-0.13
2023-01-29T09:49:37.970Z,-0.13
2023-01-29T09:54:56.300Z,-0.09
2023-01-29T10:00:02.219Z,0.00
2023-01-29T10:05:24.826Z,0.06
2023-01-29T10:10:49.700Z,0.09
2023-01-29T10:16:14.679Z,0.14
2023-01-29T10:21:43.731Z,0.16
2023-01-29T10:26:53.916Z,0.23
2023-01-29T10:32:06.149Z,0.30
2023-01-29T10:37:21.686Z,0.37
2023-01-29T10:42:39.683Z,0.43
2023-01-29T10:48:07.145Z,0.44
2023-01-29T10:53:31.614Z,0.41
2023-01-29T10:58:46.824Z,0.41
2023-01-29T11:04:02.303Z,0.43
2023-01-29T11:09:20.340Z,0.49
2023-01-29T11:14:29.903Z,0.56
2023-01-29T11:19:45.918Z,0.61
2023-01-29T11:25:11.285Z,0.62
2023-01-29T11:30:24.764Z,0.62
2023-01-29T11:35:33.559Z,0.60
2023-01-29T11:40:43.111Z,0.60
2023-01-29T11:45:52.207Z,0.61
2023-01-29T11:51:02.054Z,0.64
2023-01-29T11:56:21.897Z,0.68
2023-01-29T12:01:36.287Z,0.68
2023-01-29T12:06:50.711Z,0.64
2023-01-29T12:12:18.300Z,0.59
2023-01-29T12:17:28.399Z,0.56
2023-01-29T12:22:42.050Z,0.58
2023-01-29T12:27:54.688Z,0.59
2023-01-29T12:33:13.578Z,0.62
2023-01-29T12:38:22.313Z,0.63
2023-01-29T12:43:34.839Z,0.63
2023-01-29T12:48:45.371Z,0.63
2023-01-29T12:53:57.617Z,0.67
2023-01-29T12:59:15.316Z,0.71
2023-01-29T13:04:32.181Z,0.74
2023-01-29T13:09:44.473Z,0.75
2023-01-29T13:14:57.540Z,0.74
2023-01-29T13:20:11.871Z,0.72
2023-01-29T13:25:21.427Z,0.73
2023-01-29T13:30:33.414Z,0.74
2023-01-29T13:35:44.335Z,0.76
2023-01-29T13:40:55.181Z,0.80
2023-01-29T13:46:11.364Z,0.81
2023-01-29T13:51:23.300Z,0.77
2023-01-29T13:56:49.225Z,0.71
2023-01-29T14:02:21.513Z,0.69
2023-01-29T14:07:56.019Z,0.71
2023-01-29T14:13:46.556Z,0.74
2023-01-29T14:19:06.712Z,0.75
2023-01-29T14:24:21.068Z,0.73
2023-01-29T14:29:34.946Z,0.72
2023-01-29T14:34:51.732Z,0.71
2023-01-29T14:40:21.391Z,0.74
2023-01-29T14:45:32.206Z,0.78
2023-01-29T14:50:47.788Z,0.78
2023-01-29T14:56:04.242Z,0.75
2023-01-29T15:01:21.513Z,0.71
2023-01-29T15:06:39.041Z,0.65
2023-01-29T15:11:55.235Z,0.62
2023-01-29T15:17:23.498Z,0.62
2023-01-29T15:22:33.000Z,0.66
2023-01-29T15:27:45.206Z,0.67
2023-01-29T15:32:58.800Z,0.63
2023-01-29T15:38:15.769Z,0.60
2023-01-29T15:43:26.194Z,0.53
2023-01-29T15:48:37.446Z,0.49
2023-01-29T15:53:49.781Z,0.50
2023-01-29T15:59:00.423Z,0.54
2023-01-29T16:04:11.949Z,0.56
2023-01-29T16:09:24.987Z,0.56
2023-01-29T16:14:33.054Z,0.52
2023-01-29T16:19:38.776Z,0.51
2023-01-29T16:24:48.072Z,0.51
2023-01-29T16:29:56.092Z,0.52
2023-01-29T16:35:05.169Z,0.52
2023-01-29T16:40:26.823Z,0.50
2023-01-29T16:45:34.323Z,0.45
2023-01-29T16:50:54.336Z,0.42
2023-01-29T16:56:12.479Z,0.41
2023-01-29T17:01:20.409Z,0.43
2023-01-29T17:06:29.221Z,0.43
2023-01-29T17:11:39.816Z,0.43
2023-01-29T17:16:55.047Z,0.39
2023-01-29T17:22:05.873Z,0.38
2023-01-29T17:27:19.708Z,0.40
2023-01-29T17:32:44.417Z,0.44
2023-01-29T17:37:52.592Z,0.47
2023-01-29T17:43:00.524Z,0.46
2023-01-29T17:48:12.953Z,0.43
2023-01-29T17:53:21.352Z,0.43
2023-01-29T17:58:32.073Z,0.48
2023-01-29T18:03:39.493Z,0.54
2023-01-29T18:08:46.878Z,0.58
2023-01-29T18:13:54.253Z,0.59
2023-01-29T18:19:01.942Z,0.57
2023-01-29T18:24:09.908Z,0.56
2023-01-29T18:29:17.194Z,0.59
2023-01-29T18:34:24.693Z,0.67
2023-01-29T18:39:31.971Z,0.70
2023-01-29T18:44:39.279Z,0.69
2023-01-29T18:49:52.837Z,0.64
2023-01-29T18:55:01.318Z,0.62
2023-01-29T19:00:24.101Z,0.64
2023-01-29T19:05:41.831Z,0.67
2023-01-29T19:10:49.270Z,0.68
2023-01-29T19:15:59.391Z,0.68
2023-01-29T19:21:12.340Z,0.64
2023-01-29T19:26:22.174Z,0.63
2023-01-29T19:31:32.065Z,0.65
2023-01-29T19:36:43.217Z,0.68
2023-01-29T19:41:50.478Z,0.70
2023-01-29T19:46:57.867Z,0.69
2023-01-29T19:52:15.211Z,0.65
2023-01-29T19:57:22.723Z,0.64
2023-01-29T20:02:33.848Z,0.65
2023-01-29T20:07:42.771Z,0.67
2023-01-29T20:13:04.340Z,0.69
2023-01-29T20:18:13.989Z,0.68
2023-01-29T20:23:36.724Z,0.63
2023-01-29T20:28:46.293Z,0.60
2023-01-29T20:33:53.645Z,0.60
2023-01-29T20:39:01.016Z,0.63
2023-01-29T20:44:12.736Z,0.66
2023-01-29T20:49:21.988Z,0.63
2023-01-29T20:54:30.365Z,0.60
2023-01-29T20:59:38.119Z,0.58
2023-01-29T21:04:49.107Z,0.57
2023-01-29T21:09:56.264Z,0.58
2023-01-29T21:15:06.956Z,0.61
2023-01-29T21:20:15.688Z,0.61
2023-01-29T21:25:25.604Z,0.57
2023-01-29T21:30:33.055Z,0.56
2023-01-29T21:35:40.752Z,0.59
2023-01-29T21:40:48.101Z,0.62
2023-01-29T21:46:00.447Z,0.61
2023-01-29T21:51:08.856Z,0.57
2023-01-29T21:56:21.730Z,0.52
2023-01-29T22:01:38.066Z,0.50
2023-01-29T22:06:45.809Z,0.51
2023-01-29T22:11:53.278Z,0.55
2023-01-29T22:17:03.052Z,0.59
2023-01-29T22:22:13.738Z,0.58
2023-01-29T22:27:21.215Z,0.56
2023-01-29T22:32:28.579Z,0.56
2023-01-29T22:37:35.903Z,0.58
2023-01-29T22:42:43.296Z,0.61
2023-01-29T22:47:53.028Z,0.62
2023-01-29T22:53:04.703Z,0.60
2023-01-29T22:58:12.187Z,0.56
2023-01-29T23:03:21.689Z,0.56
2023-01-29T23:08:29.350Z,0.59
2023-01-29T23:13:36.798Z,0.61
2023-01-29T23:18:44.767Z,0.62
2023-01-29T23:23:54.424Z,0.59
2023-01-29T23:29:03.979Z,0.54
2023-01-29T23:34:11.415Z,0.49
2023-01-29T23:39:18.944Z,0.48
2023-01-29T23:44:26.151Z,0.49
2023-01-29T23:49:33.347Z,0.50
2023-01-29T23:54:40.560Z,0.52
2023-01-29T23:59:47.765Z,0.50
